createdAt,value
2022-07-25T00:01:12.318Z,59.84
2022-07-25T00:04:15.465Z,59.63
2022-07-25T00:07:19.479Z,59.65
2022-07-25T00:10:22.731Z,59.37
2022-07-25T00:13:25.407Z,59.57
2022-07-25T00:16:28.411Z,59.58
2022-07-25T00:19:31.004Z,60.12
2022-07-25T00:22:33.943Z,59.69
2022-07-25T00:25:36.536Z,59.50
2022-07-25T00:28:39.533Z,59.13
2022-07-25T00:31:42.240Z,58.88
2022-07-25T00:34:45.279Z,58.85
2022-07-25T00:37:48.023Z,58.85
2022-07-25T00:40:54.482Z,58.77
2022-07-25T00:43:58.647Z,58.75
2022-07-25T00:47:01.885Z,58.95
2022-07-25T00:50:04.886Z,59.21
2022-07-25T00:53:07.993Z,58.51
2022-07-25T00:56:10.700Z,58.76
2022-07-25T00:59:13.750Z,58.25
2022-07-25T01:02:16.507Z,57.70
2022-07-25T01:05:19.513Z,57.57
2022-07-25T01:08:22.750Z,57.36
2022-07-25T01:11:26.035Z,57.30
2022-07-25T01:14:28.663Z,56.23
2022-07-25T01:17:31.556Z,58.02
2022-07-25T01:20:34.932Z,54.47
2022-07-25T01:23:38.274Z,55.71
2022-07-25T01:26:41.053Z,55.36
2022-07-25T01:29:43.930Z,55.00
2022-07-25T01:32:46.888Z,53.64
2022-07-25T01:35:50.269Z,52.39
2022-07-25T01:38:54.145Z,49.20
2022-07-25T01:41:57.289Z,50.68
2022-07-25T01:45:00.318Z,49.51
2022-07-25T01:48:03.355Z,48.50
2022-07-25T01:51:06.223Z,49.25
2022-07-25T01:54:10.478Z,47.56
2022-07-25T01:57:13.143Z,47.82
2022-07-25T02:00:16.695Z,48.11
2022-07-25T02:03:31.712Z,48.60
2022-07-25T02:06:37.226Z,48.37
2022-07-25T02:09:41.308Z,48.32
2022-07-25T02:12:43.897Z,49.07
2022-07-25T02:15:46.950Z,49.30
2022-07-25T02:18:49.647Z,50.49
2022-07-25T02:21:52.513Z,51.25
2022-07-25T02:24:55.186Z,51.06
2022-07-25T02:27:58.288Z,51.24
2022-07-25T02:31:01.296Z,51.92
2022-07-25T02:34:04.702Z,52.44
2022-07-25T02:37:07.619Z,53.44
2022-07-25T02:40:11.569Z,53.29
2022-07-25T02:43:14.329Z,53.86
2022-07-25T02:46:18.604Z,54.93
2022-07-25T02:49:21.362Z,54.16
2022-07-25T02:52:24.741Z,53.79
2022-07-25T02:55:27.477Z,53.89
2022-07-25T02:58:30.357Z,53.98
2022-07-25T03:01:33.360Z,55.38
2022-07-25T03:04:37.687Z,55.83
2022-07-25T03:07:41.386Z,56.21
2022-07-25T03:10:44.289Z,56.65
2022-07-25T03:13:46.879Z,57.05
2022-07-25T03:16:49.880Z,57.26
2022-07-25T03:19:52.534Z,58.39
2022-07-25T03:22:55.488Z,59.60
2022-07-25T03:25:58.519Z,60.63
2022-07-25T03:29:01.472Z,61.58
2022-07-25T03:32:04.748Z,62.49
2022-07-25T03:35:08.196Z,62.42
2022-07-25T03:38:11.090Z,63.42
2022-07-25T03:41:14.173Z,63.84
2022-07-25T03:44:16.770Z,62.98
2022-07-25T03:47:20.372Z,61.02
2022-07-25T03:50:23.816Z,63.80
2022-07-25T03:53:26.698Z,62.21
2022-07-25T03:56:30.599Z,61.67
2022-07-25T03:59:33.721Z,60.21
2022-07-25T04:02:40.208Z,61.51
2022-07-25T04:05:47.444Z,59.19
2022-07-25T04:08:50.573Z,62.21
2022-07-25T04:11:53.427Z,62.20
2022-07-25T04:14:56.101Z,60.85
2022-07-25T04:17:59.037Z,61.34
2022-07-25T04:21:03.626Z,62.43
2022-07-25T04:24:07.164Z,58.65
2022-07-25T04:27:09.939Z,58.13
2022-07-25T04:30:13.404Z,57.40
2022-07-25T04:33:27.119Z,59.29
2022-07-25T04:36:29.995Z,59.94
2022-07-25T04:39:32.623Z,59.00
2022-07-25T04:42:35.474Z,55.65
2022-07-25T04:45:38.267Z,51.94
2022-07-25T04:48:41.269Z,49.92
2022-07-25T04:51:45.012Z,49.06
2022-07-25T04:54:47.906Z,47.02
2022-07-25T04:57:50.766Z,45.28
2022-07-25T05:00:53.731Z,44.69
2022-07-25T05:03:56.378Z,43.86
2022-07-25T05:06:59.387Z,42.70
2022-07-25T05:10:02.091Z,42.14
2022-07-25T05:13:05.042Z,41.62
2022-07-25T05:16:07.998Z,39.71
2022-07-25T05:19:11.082Z,39.36
2022-07-25T05:22:14.131Z,39.00
2022-07-25T05:25:17.019Z,36.51
2022-07-25T05:28:19.655Z,35.34
2022-07-25T05:31:22.615Z,34.03
2022-07-25T05:34:25.303Z,33.82
2022-07-25T05:37:28.174Z,33.11
2022-07-25T05:40:30.753Z,32.93
2022-07-25T05:43:33.777Z,32.76
2022-07-25T05:46:36.805Z,32.73
2022-07-25T05:49:40.089Z,31.79
2022-07-25T05:52:42.749Z,31.82
2022-07-25T05:55:45.655Z,31.33
2022-07-25T05:58:48.208Z,32.12
2022-07-25T06:01:51.350Z,31.34
2022-07-25T06:04:54.550Z,30.82
2022-07-25T06:07:57.190Z,30.69
2022-07-25T06:11:00.582Z,31.22
2022-07-25T06:14:04.835Z,30.29
2022-07-25T06:17:10.597Z,30.66
2022-07-25T06:20:13.212Z,31.88
2022-07-25T06:23:17.009Z,29.58
2022-07-25T06:26:19.789Z,29.90
2022-07-25T06:29:22.884Z,29.92
2022-07-25T06:32:25.516Z,29.24
2022-07-25T06:35:28.521Z,29.04
2022-07-25T06:38:31.150Z,30.82
2022-07-25T06:41:34.096Z,30.54
2022-07-25T06:44:36.706Z,29.34
2022-07-25T06:47:40.919Z,29.14
2022-07-25T06:50:45.387Z,29.34
2022-07-25T06:53:48.355Z,27.77
2022-07-25T06:56:50.990Z,28.25
2022-07-25T06:59:54.109Z,27.39
2022-07-25T07:03:01.298Z,27.26
2022-07-25T07:06:09.427Z,27.29
2022-07-25T07:09:12.124Z,28.49
2022-07-25T07:12:14.995Z,30.83
2022-07-25T07:15:17.709Z,29.93
2022-07-25T07:18:21.452Z,31.56
2022-07-25T07:21:24.745Z,30.49
2022-07-25T07:24:28.976Z,30.20
2022-07-25T07:27:31.574Z,29.40
2022-07-25T07:31:05.713Z,27.50
2022-07-25T07:33:59.043Z,26.89
2022-07-25T07:37:02.621Z,27.00
2022-07-25T07:40:08.039Z,28.05
2022-07-25T07:43:20.474Z,27.74
2022-07-25T07:46:23.080Z,27.31
2022-07-25T07:49:26.220Z,26.16
2022-07-25T07:52:28.956Z,28.38
2022-07-25T07:55:44.318Z,26.37
2022-07-25T07:58:47.423Z,26.77
2022-07-25T08:01:50.517Z,27.09
2022-07-25T08:04:53.476Z,28.50
2022-07-25T08:07:56.253Z,27.22
2022-07-25T08:10:59.874Z,26.88
2022-07-25T08:14:04.542Z,26.34
2022-07-25T08:17:07.843Z,27.25
2022-07-25T08:20:36.712Z,27.17
2022-07-25T08:23:39.419Z,26.69
2022-07-25T08:26:42.133Z,28.35
2022-07-25T08:29:45.120Z,26.14
2022-07-25T08:33:01.650Z,27.38
2022-07-25T08:36:04.699Z,27.51
2022-07-25T08:39:07.354Z,26.79
2022-07-25T08:42:11.247Z,25.85
2022-07-25T08:45:19.546Z,26.06
2022-07-25T08:48:25.486Z,26.24
2022-07-25T08:51:28.722Z,26.35
2022-07-25T08:54:31.737Z,26.12
2022-07-25T08:57:35.863Z,26.93
2022-07-25T09:00:39.854Z,27.31
2022-07-25T09:03:43.828Z,26.95
2022-07-25T09:06:53.075Z,25.72
2022-07-25T09:09:55.703Z,25.46
2022-07-25T09:13:04.570Z,25.79
2022-07-25T09:16:07.504Z,26.23
2022-07-25T09:19:17.600Z,26.29
2022-07-25T09:22:20.308Z,27.34
2022-07-25T09:25:31.173Z,27.44
2022-07-25T09:28:41.341Z,27.31
2022-07-25T09:31:44.409Z,27.29
2022-07-25T09:34:49.678Z,27.16
2022-07-25T09:37:52.597Z,27.32
2022-07-25T09:40:57.760Z,27.86
2022-07-25T09:44:00.706Z,26.76
2022-07-25T09:47:13.997Z,27.73
2022-07-25T09:50:18.023Z,28.72
2022-07-25T09:53:20.910Z,28.07
2022-07-25T09:56:23.927Z,27.40
2022-07-25T09:59:26.694Z,26.46
2022-07-25T10:02:32.623Z,27.21
2022-07-25T10:05:49.587Z,27.16
2022-07-25T10:08:54.101Z,26.70
2022-07-25T10:12:08.601Z,26.62
2022-07-25T10:15:13.787Z,26.04
2022-07-25T10:18:19.776Z,25.88
2022-07-25T10:21:27.437Z,26.29
2022-07-25T10:24:35.978Z,26.65
2022-07-25T10:27:58.335Z,26.63
2022-07-25T10:31:01.340Z,26.10
2022-07-25T10:34:05.587Z,27.73
2022-07-25T10:37:14.540Z,26.99
2022-07-25T10:40:40.113Z,27.62
2022-07-25T10:43:48.849Z,26.96
2022-07-25T10:46:51.689Z,27.03
2022-07-25T10:53:47.100Z,27.43
2022-07-25T10:56:58.757Z,27.45
2022-07-25T11:00:06.530Z,26.53
2022-07-25T11:03:13.460Z,26.60
2022-07-25T11:06:36.220Z,25.98
2022-07-25T11:09:41.056Z,26.84
2022-07-25T11:12:46.745Z,27.05
2022-07-25T11:15:49.922Z,27.14
2022-07-25T11:18:54.450Z,26.56
2022-07-25T11:21:59.994Z,27.24
2022-07-25T11:25:10.458Z,26.25
2022-07-25T11:28:13.387Z,27.02
2022-07-25T11:31:17.862Z,26.65
2022-07-25T11:34:46.483Z,27.04
2022-07-25T11:37:50.872Z,26.58
2022-07-25T11:40:53.770Z,26.72
2022-07-25T11:43:57.403Z,26.16
2022-07-25T11:47:00.725Z,27.00
2022-07-25T11:50:05.339Z,27.15
2022-07-25T11:53:11.672Z,26.93
2022-07-25T11:56:40.836Z,27.63
2022-07-25T11:59:43.423Z,27.19
2022-07-25T12:02:47.406Z,27.61
2022-07-25T12:05:50.658Z,27.37
2022-07-25T12:08:53.426Z,26.96
2022-07-25T12:12:03.415Z,27.56
2022-07-25T12:15:06.306Z,27.04
2022-07-25T12:18:10.704Z,27.93
2022-07-25T12:21:13.371Z,28.33
2022-07-25T12:24:16.306Z,28.28
2022-07-25T12:27:18.882Z,28.78
2022-07-25T12:30:22.524Z,27.95
2022-07-25T12:33:25.697Z,27.75
2022-07-25T12:36:28.841Z,27.50
2022-07-25T12:39:31.773Z,27.43
2022-07-25T12:42:34.872Z,28.05
2022-07-25T12:45:37.803Z,27.86
2022-07-25T12:48:40.774Z,28.53
2022-07-25T12:51:43.414Z,28.73
2022-07-25T12:54:46.907Z,28.95
2022-07-25T12:57:50.020Z,27.96
2022-07-25T13:00:55.853Z,29.04
2022-07-25T13:04:00.827Z,28.57
2022-07-25T13:07:03.954Z,28.96
2022-07-25T13:10:07.218Z,28.42
2022-07-25T13:13:10.372Z,28.39
2022-07-25T13:16:13.501Z,28.69
2022-07-25T13:19:17.226Z,29.20
2022-07-25T13:22:19.869Z,28.50
2022-07-25T13:25:22.998Z,28.37
2022-07-25T13:28:25.646Z,28.86
2022-07-25T13:31:28.944Z,29.20
2022-07-25T13:34:31.997Z,28.61
2022-07-25T13:37:35.139Z,28.51
2022-07-25T13:40:42.032Z,28.62
2022-07-25T13:43:44.990Z,29.17
2022-07-25T13:46:49.981Z,28.76
2022-07-25T13:49:53.410Z,28.92
2022-07-25T13:52:57.311Z,28.35
2022-07-25T13:56:00.443Z,28.72
2022-07-25T13:59:04.071Z,28.59
2022-07-25T14:02:12.836Z,29.24
2022-07-25T14:05:15.861Z,27.92
2022-07-25T14:08:19.248Z,29.19
2022-07-25T14:11:24.874Z,27.80
2022-07-25T14:14:31.307Z,28.60
2022-07-25T14:17:34.603Z,28.65
2022-07-25T14:20:37.812Z,29.26
2022-07-25T14:23:40.753Z,28.79
2022-07-25T14:26:43.538Z,28.80
2022-07-25T14:29:46.458Z,28.88
2022-07-25T14:32:49.078Z,29.31
2022-07-25T14:35:51.990Z,29.01
2022-07-25T14:38:54.984Z,29.21
2022-07-25T14:41:59.318Z,28.56
2022-07-25T14:45:01.919Z,28.68
2022-07-25T14:48:07.802Z,29.50
2022-07-25T14:51:10.985Z,28.87
2022-07-25T14:54:14.741Z,29.42
2022-07-25T14:57:17.414Z,29.13
2022-07-25T15:00:24.937Z,29.27
2022-07-25T15:03:30.588Z,29.22
2022-07-25T15:06:33.617Z,29.18
2022-07-25T15:09:36.355Z,29.05
2022-07-25T15:12:39.263Z,29.41
2022-07-25T15:15:42.268Z,29.65
2022-07-25T15:19:13.528Z,29.66
2022-07-25T15:22:07.908Z,29.32
2022-07-25T15:25:45.506Z,30.04
2022-07-25T15:28:34.904Z,30.02
2022-07-25T15:31:37.961Z,29.64
2022-07-25T15:34:40.712Z,29.82
2022-07-25T15:37:43.616Z,30.27
2022-07-25T15:40:47.010Z,30.60
2022-07-25T15:43:49.926Z,30.54
2022-07-25T15:46:52.643Z,30.39
2022-07-25T15:49:55.824Z,30.84
2022-07-25T15:52:58.445Z,30.58
2022-07-25T15:56:01.372Z,30.79
2022-07-25T15:59:04.108Z,31.01
2022-07-25T16:02:10.301Z,31.04
2022-07-25T16:05:13.485Z,31.53
2022-07-25T16:08:16.302Z,31.78
2022-07-25T16:11:19.220Z,32.26
2022-07-25T16:14:21.804Z,31.73
2022-07-25T16:17:25.937Z,32.00
2022-07-25T16:20:31.012Z,32.00
2022-07-25T16:23:39.657Z,32.13
2022-07-25T16:26:44.930Z,32.06
2022-07-25T16:29:47.809Z,31.94
2022-07-25T16:32:50.413Z,32.13
2022-07-25T16:35:53.461Z,32.34
2022-07-25T16:38:56.141Z,32.60
2022-07-25T16:41:59.010Z,32.59
2022-07-25T16:45:01.813Z,32.68
2022-07-25T16:48:08.463Z,33.00
2022-07-25T16:51:11.126Z,33.03
2022-07-25T16:54:14.063Z,33.17
2022-07-25T16:57:16.667Z,33.18
2022-07-25T17:00:20.871Z,33.67
2022-07-25T17:03:23.474Z,33.58
2022-07-25T17:06:26.453Z,33.95
2022-07-25T17:09:29.179Z,34.45
2022-07-25T17:12:32.482Z,34.32
2022-07-25T17:15:35.202Z,35.05
2022-07-25T17:18:39.163Z,36.51
2022-07-25T17:21:42.160Z,37.21
2022-07-25T17:24:45.129Z,38.89
2022-07-25T17:27:47.854Z,39.74
2022-07-25T17:30:51.006Z,40.89
2022-07-25T17:33:53.668Z,41.79
2022-07-25T17:36:57.325Z,42.42
2022-07-25T17:40:00.077Z,43.46
2022-07-25T17:43:03.009Z,43.93
2022-07-25T17:46:06.207Z,43.75
2022-07-25T17:49:13.930Z,44.26
2022-07-25T17:52:17.841Z,44.67
2022-07-25T17:55:21.249Z,45.23
2022-07-25T17:58:25.714Z,45.69
2022-07-25T18:01:28.985Z,46.41
2022-07-25T18:04:32.123Z,47.28
2022-07-25T18:07:34.767Z,47.27
2022-07-25T18:10:37.962Z,48.30
2022-07-25T18:13:40.666Z,48.89
2022-07-25T18:16:45.388Z,49.16
2022-07-25T18:19:48.294Z,49.43
2022-07-25T18:22:51.306Z,49.83
2022-07-25T18:25:54.278Z,50.43
2022-07-25T18:28:57.259Z,50.56
2022-07-25T18:31:59.837Z,50.86
2022-07-25T18:35:03.084Z,51.52
2022-07-25T18:38:06.009Z,51.88
2022-07-25T18:44:32.502Z,52.69
2022-07-25T18:47:36.403Z,53.15
2022-07-25T18:50:38.986Z,53.60
2022-07-25T18:53:47.423Z,54.08
2022-07-25T18:56:50.915Z,54.57
2022-07-25T18:59:53.820Z,55.24
2022-07-25T19:02:56.522Z,55.69
2022-07-25T19:06:03.140Z,56.10
2022-07-25T19:09:06.420Z,56.60
2022-07-25T19:12:10.323Z,57.07
2022-07-25T19:15:12.998Z,57.66
2022-07-25T19:18:16.103Z,58.13
2022-07-25T19:21:18.893Z,58.43
2022-07-25T19:24:22.578Z,58.80
2022-07-25T19:27:25.962Z,59.02
2022-07-25T19:30:30.166Z,59.56
2022-07-25T19:33:34.661Z,59.96
2022-07-25T19:36:39.612Z,60.22
2022-07-25T19:39:42.429Z,60.67
2022-07-25T19:42:45.362Z,60.85
2022-07-25T19:45:48.827Z,60.81
2022-07-25T19:48:52.133Z,61.01
2022-07-25T19:51:54.889Z,61.44
2022-07-25T19:54:58.712Z,61.18
2022-07-25T19:58:01.323Z,61.27
2022-07-25T20:01:04.283Z,61.32
2022-07-25T20:04:09.268Z,61.83
2022-07-25T20:07:12.259Z,62.31
2022-07-25T20:10:17.784Z,62.96
2022-07-25T20:13:20.778Z,63.11
2022-07-25T20:16:23.892Z,63.55
2022-07-25T20:19:26.687Z,63.95
2022-07-25T20:22:31.484Z,63.85
2022-07-25T20:25:34.227Z,64.00
2022-07-25T20:28:38.113Z,64.09
2022-07-25T20:31:42.580Z,64.29
2022-07-25T20:34:45.646Z,64.43
2022-07-25T20:37:48.447Z,64.60
2022-07-25T20:40:52.163Z,64.72
2022-07-25T20:43:54.788Z,64.85
2022-07-25T20:46:57.899Z,64.82
2022-07-25T20:50:00.860Z,65.21
2022-07-25T20:53:04.817Z,65.20
2022-07-25T20:56:08.534Z,65.08
2022-07-25T20:59:11.912Z,64.99
2022-07-25T21:02:17.316Z,65.33
2022-07-25T21:05:21.166Z,65.68
2022-07-25T21:08:23.914Z,66.08
2022-07-25T21:11:26.872Z,66.32
2022-07-25T21:14:29.491Z,66.51
2022-07-25T21:17:33.118Z,66.88
2022-07-25T21:20:35.815Z,67.14
2022-07-25T21:23:38.962Z,67.23
2022-07-25T21:26:42.111Z,67.18
2022-07-25T21:29:45.319Z,67.30
2022-07-25T21:32:47.938Z,67.62
2022-07-25T21:35:53.378Z,67.88
2022-07-25T21:38:56.687Z,67.95
2022-07-25T21:41:59.667Z,68.14
2022-07-25T21:45:04.288Z,68.34
2022-07-25T21:48:07.318Z,68.49
2022-07-25T21:51:18.634Z,68.44
2022-07-25T21:54:26.264Z,68.53
2022-07-25T21:57:29.029Z,68.43
2022-07-25T22:00:33.398Z,68.43
2022-07-25T22:03:36.631Z,68.38
2022-07-25T22:06:39.368Z,68.58
2022-07-25T22:09:42.385Z,68.44
2022-07-25T22:12:45.236Z,68.44
2022-07-25T22:15:48.147Z,68.36
2022-07-25T22:18:50.814Z,68.38
2022-07-25T22:21:53.793Z,68.91
2022-07-25T22:24:56.457Z,69.36
2022-07-25T22:27:59.327Z,69.67
2022-07-25T22:31:01.891Z,69.78
2022-07-25T22:34:04.973Z,70.23
2022-07-25T22:37:07.643Z,70.20
2022-07-25T22:40:11.211Z,70.34
2022-07-25T22:43:14.906Z,70.48
2022-07-25T22:46:17.875Z,70.33
2022-07-25T22:49:22.937Z,70.47
2022-07-25T22:52:26.013Z,70.55
2022-07-25T22:55:28.667Z,70.87
2022-07-25T22:58:31.598Z,71.17
2022-07-25T23:01:34.284Z,71.53
2022-07-25T23:04:38.503Z,72.00
2022-07-25T23:07:41.143Z,72.35
2022-07-25T23:10:44.048Z,72.62
2022-07-25T23:13:47.885Z,72.75
2022-07-25T23:17:10.782Z,72.92
2022-07-25T23:20:13.464Z,73.05
2022-07-25T23:23:16.457Z,73.12
2022-07-25T23:26:19.075Z,73.27
2022-07-25T23:29:21.935Z,73.40
2022-07-25T23:32:24.579Z,73.62
2022-07-25T23:35:27.481Z,73.87
2022-07-25T23:38:30.257Z,74.24
2022-07-25T23:41:33.158Z,74.44
2022-07-25T23:44:38.076Z,74.80
2022-07-25T23:47:41.401Z,75.01
2022-07-25T23:50:46.021Z,75.26
2022-07-25T23:53:49.228Z,75.36
2022-07-25T23:56:52.325Z,75.40
2022-07-25T23:59:55.340Z,75.45
